Time;durP1;ratioP1;P1;durP2;ratioP2;P2;SDS_P1;SDS_P2;PMS_P1;PMS_P2;Temp;Humidity;BMP_temperature;BMP_pressure;BME280_temperature;BME280_humidity;BME280_pressure;Samples;Min_cycle;Max_cycle;Signal;HPM_P1;HPM_P2
2023/08/26 01:27:23;;;;;;;0.57;0.57;;;;;;;;;;7395877;19;20957;-85
2023/08/26 01:29:50;;;;;;;0.82;0.73;;;;;;;;;;7392072;19;20364;-86
2023/08/26 01:32:37;;;;;;;1.08;1.08;;;;;;;;;;7394516;19;20360;-87
2023/08/26 01:35:08;;;;;;;0.70;0.70;;;;;;;;;;7392270;19;20447;-86
2023/08/26 01:37:37;;;;;;;0.60;0.60;;;;;;;;;;7393546;19;20337;-87
2023/08/26 01:40:06;;;;;;;0.80;0.80;;;;;;;;;;7396527;19;20399;-87
2023/08/26 01:42:35;;;;;;;0.60;0.60;;;;;;;;;;7397115;19;20424;-87
2023/08/26 01:45:03;;;;;;;0.80;0.80;;;;;;;;;;7396739;19;20918;-87
2023/08/26 01:47:30;;;;;;;0.75;0.75;;;;;;;;;;7396609;19;20369;-87
2023/08/26 01:49:57;;;;;;;0.73;0.73;;;;;;;;;;7394646;19;20344;-87
2023/08/26 01:52:24;;;;;;;0.65;0.65;;;;;;;;;;7396493;19;20368;-87
2023/08/26 01:54:50;;;;;;;0.63;0.63;;;;;;;;;;7396285;19;20733;-87
2023/08/26 01:57:17;;;;;;;0.40;0.40;;;;;;;;;;7396770;19;20360;-87
2023/08/26 01:59:44;;;;;;;0.60;0.60;;;;;;;;;;7397524;19;20364;-87
2023/08/26 02:02:11;;;;;;;0.60;0.60;;;;;;;;;;7395178;19;20336;-87
2023/08/26 02:04:37;;;;;;;0.88;0.88;;;;;;;;;;7396120;19;20865;-88
2023/08/26 02:07:04;;;;;;;0.50;0.50;;;;;;;;;;7396646;19;20351;-87
2023/08/26 02:09:31;;;;;;;0.70;0.70;;;;;;;;;;7399086;19;20416;-87
2023/08/26 02:11:58;;;;;;;0.70;0.70;;;;;;;;;;7395760;19;20352;-87
2023/08/26 02:14:24;;;;;;;0.73;0.73;;;;;;;;;;7398441;19;20416;-87
2023/08/26 02:16:51;;;;;;;0.45;0.45;;;;;;;;;;7398403;19;21038;-87
2023/08/26 02:19:18;;;;;;;0.55;0.55;;;;;;;;;;7398740;19;20344;-86
2023/08/26 02:21:44;;;;;;;1.00;1.00;;;;;;;;;;7394409;19;20352;-87
2023/08/26 02:24:11;;;;;;;1.15;1.05;;;;;;;;;;7398971;19;20348;-87
2023/08/26 02:26:38;;;;;;;1.13;1.02;;;;;;;;;;7393905;19;20420;-85
2023/08/26 02:29:04;;;;;;;0.70;0.70;;;;;;;;;;7391950;19;20368;-85
2023/08/26 02:31:31;;;;;;;0.60;0.60;;;;;;;;;;7411959;19;20360;-91
2023/08/26 02:33:58;;;;;;;0.70;0.63;;;;;;;;;;7419044;19;20356;-91
2023/08/26 02:36:24;;;;;;;1.27;1.17;;;;;;;;;;7425256;19;20340;-92
2023/08/26 02:38:51;;;;;;;0.90;0.90;;;;;;;;;;7422732;19;20371;-92
2023/08/26 02:41:18;;;;;;;0.85;0.85;;;;;;;;;;7420164;19;20467;-87
2023/08/26 02:43:46;;;;;;;0.60;0.60;;;;;;;;;;7397814;19;20344;-85
2023/08/26 02:46:12;;;;;;;1.30;1.20;;;;;;;;;;7394623;19;20404;-86
2023/08/26 02:48:39;;;;;;;0.50;0.50;;;;;;;;;;7394964;19;20384;-85
2023/08/26 02:51:06;;;;;;;0.60;0.60;;;;;;;;;;7394781;19;20376;-85
2023/08/26 02:53:33;;;;;;;0.93;0.82;;;;;;;;;;7392607;19;20896;-85
2023/08/26 02:56:08;;;;;;;0.55;0.52;;;;;;;;;;7393045;19;20371;-85
2023/08/26 02:58:34;;;;;;;0.90;0.90;;;;;;;;;;7390964;19;20446;-86
2023/08/26 03:01:01;;;;;;;0.50;0.50;;;;;;;;;;7391011;19;20890;-86
2023/08/26 03:03:28;;;;;;;0.70;0.70;;;;;;;;;;7390641;19;20344;-84
2023/08/26 03:05:57;;;;;;;5.22;0.80;;;;;;;;;;7391656;19;20969;-87
2023/08/26 03:08:24;;;;;;;0.90;0.90;;;;;;;;;;7387243;19;20360;-85
2023/08/26 03:10:58;;;;;;;0.75;0.75;;;;;;;;;;7391031;19;20436;-83
2023/08/26 03:13:25;;;;;;;0.90;0.90;;;;;;;;;;7390998;19;20341;-84
2023/08/26 03:15:52;;;;;;;0.85;0.85;;;;;;;;;;7391257;19;20386;-87
2023/08/26 03:18:18;;;;;;;0.60;0.60;;;;;;;;;;7388994;19;20364;-85
2023/08/26 03:20:45;;;;;;;0.75;0.75;;;;;;;;;;7391805;19;20364;-85
2023/08/26 03:23:12;;;;;;;0.80;0.70;;;;;;;;;;7396744;19;20848;-86
2023/08/26 03:25:40;;;;;;;1.10;0.90;;;;;;;;;;7399915;19;20904;-87
2023/08/26 03:28:10;;;;;;;1.40;1.30;;;;;;;;;;7397748;19;20361;-87
2023/08/26 03:30:37;;;;;;;1.80;1.10;;;;;;;;;;7398391;19;20955;-85
2023/08/26 03:33:04;;;;;;;0.60;0.60;;;;;;;;;;7397058;19;20359;-85
2023/08/26 03:35:31;;;;;;;0.40;0.40;;;;;;;;;;7397183;19;20716;-85
2023/08/26 03:37:58;;;;;;;0.82;0.82;;;;;;;;;;7398167;19;20358;-85
2023/08/26 03:40:24;;;;;;;1.60;0.90;;;;;;;;;;7395998;19;20356;-84
2023/08/26 03:42:51;;;;;;;0.70;0.70;;;;;;;;;;7398481;19;20366;-87
2023/08/26 03:45:18;;;;;;;1.10;0.80;;;;;;;;;;7396885;19;20360;-85
2023/08/26 03:47:44;;;;;;;1.75;0.90;;;;;;;;;;7395664;19;20882;-84
2023/08/26 03:50:12;;;;;;;1.10;1.10;;;;;;;;;;7395623;19;20715;-85
2023/08/26 03:52:39;;;;;;;0.93;0.93;;;;;;;;;;7398639;19;20352;-85
2023/08/26 03:55:07;;;;;;;0.70;0.70;;;;;;;;;;7397019;19;20373;-85
2023/08/26 03:57:33;;;;;;;0.70;0.70;;;;;;;;;;7396652;19;20357;-85
2023/08/26 04:00:02;;;;;;;0.50;0.50;;;;;;;;;;7394151;19;20368;-85
2023/08/26 04:02:29;;;;;;;0.57;0.57;;;;;;;;;;7397696;19;20345;-84
2023/08/26 04:04:55;;;;;;;0.50;0.50;;;;;;;;;;7398748;19;20693;-84
2023/08/26 04:07:22;;;;;;;1.10;0.80;;;;;;;;;;7398122;19;20360;-84
2023/08/26 04:09:49;;;;;;;0.90;0.90;;;;;;;;;;7396977;19;20730;-85
2023/08/26 04:12:15;;;;;;;0.80;0.80;;;;;;;;;;7394035;19;20363;-84
2023/08/26 04:14:42;;;;;;;0.57;0.57;;;;;;;;;;7396455;19;20364;-85
2023/08/26 04:17:09;;;;;;;0.60;0.60;;;;;;;;;;7396572;19;20360;-87
2023/08/26 04:19:35;;;;;;;1.65;0.95;;;;;;;;;;7397751;19;20688;-86
2023/08/26 04:22:02;;;;;;;0.68;0.68;;;;;;;;;;7395424;19;20887;-85
2023/08/26 04:24:31;;;;;;;0.50;0.50;;;;;;;;;;7396415;19;20371;-85
2023/08/26 04:26:58;;;;;;;0.50;0.50;;;;;;;;;;7396259;19;20341;-84
2023/08/26 04:29:24;;;;;;;1.03;0.97;;;;;;;;;;7395735;19;20340;-84
2023/08/26 04:31:51;;;;;;;2.20;0.63;;;;;;;;;;7397738;19;20340;-90
2023/08/26 04:34:18;;;;;;;0.70;0.70;;;;;;;;;;7409938;19;20372;-86
2023/08/26 04:36:44;;;;;;;0.50;0.50;;;;;;;;;;7398490;19;20394;-84
2023/08/26 04:39:11;;;;;;;0.52;0.52;;;;;;;;;;7396274;19;20974;-86
2023/08/26 04:41:41;;;;;;;1.00;1.00;;;;;;;;;;7396857;19;20445;-84
2023/08/26 04:44:08;;;;;;;0.68;0.68;;;;;;;;;;7395132;19;20382;-86
2023/08/26 04:46:35;;;;;;;0.40;0.40;;;;;;;;;;7394723;19;20344;-84
2023/08/26 04:49:02;;;;;;;0.70;0.70;;;;;;;;;;7394012;19;20349;-88
2023/08/26 04:51:29;;;;;;;0.75;0.75;;;;;;;;;;7397230;19;20348;-84
2023/08/26 04:53:58;;;;;;;0.60;0.60;;;;;;;;;;7391759;19;20708;-84
2023/08/26 04:56:26;;;;;;;0.75;0.75;;;;;;;;;;7389830;19;20423;-84
2023/08/26 04:58:52;;;;;;;0.60;0.60;;;;;;;;;;7393229;19;20343;-86
2023/08/26 05:01:20;;;;;;;0.67;0.67;;;;;;;;;;7391688;19;20882;-84
2023/08/26 05:03:47;;;;;;;0.85;0.85;;;;;;;;;;7394713;19;20344;-86
2023/08/26 05:06:14;;;;;;;0.75;0.65;;;;;;;;;;7396728;19;20353;-88
2023/08/26 05:08:41;;;;;;;1.30;0.90;;;;;;;;;;7393017;19;20356;-86
2023/08/26 05:11:07;;;;;;;1.35;1.33;;;;;;;;;;7391951;19;20356;-85
2023/08/26 05:13:34;;;;;;;0.70;0.70;;;;;;;;;;7395189;19;20356;-85
2023/08/26 05:16:01;;;;;;;0.90;0.77;;;;;;;;;;7392515;19;21100;-85
2023/08/26 05:18:28;;;;;;;2.55;0.75;;;;;;;;;;7390847;19;20349;-84
2023/08/26 05:20:54;;;;;;;0.95;0.95;;;;;;;;;;7393645;19;20351;-85
2023/08/26 05:23:21;;;;;;;2.95;1.00;;;;;;;;;;7395867;19;20708;-85
2023/08/26 05:25:48;;;;;;;0.40;0.40;;;;;;;;;;7392332;19;20361;-85
2023/08/26 05:28:14;;;;;;;1.10;0.95;;;;;;;;;;7391420;19;20347;-86
2023/08/26 05:30:41;;;;;;;0.88;0.88;;;;;;;;;;7395272;19;20337;-86
2023/08/26 05:33:08;;;;;;;0.63;0.63;;;;;;;;;;7395209;19;20383;-85
2023/08/26 05:35:34;;;;;;;0.70;0.70;;;;;;;;;;7391354;19;20723;-85
2023/08/26 05:38:01;;;;;;;1.70;0.80;;;;;;;;;;7394198;19;20874;-85
2023/08/26 05:40:29;;;;;;;0.77;0.77;;;;;;;;;;7392838;19;21264;-86
2023/08/26 05:42:56;;;;;;;0.70;0.70;;;;;;;;;;7393336;19;20332;-85
2023/08/26 05:45:25;;;;;;;0.80;0.80;;;;;;;;;;7393832;19;20438;-85
2023/08/26 05:47:52;;;;;;;0.47;0.47;;;;;;;;;;7392572;19;20373;-86
2023/08/26 05:50:19;;;;;;;0.63;0.63;;;;;;;;;;7394467;19;20436;-86
2023/08/26 05:52:45;;;;;;;0.50;0.50;;;;;;;;;;7393344;19;20374;-86
2023/08/26 05:55:12;;;;;;;1.50;0.85;;;;;;;;;;7392870;19;20862;-86
2023/08/26 05:57:40;;;;;;;0.50;0.50;;;;;;;;;;7393053;19;20337;-87
2023/08/26 06:00:08;;;;;;;0.70;0.70;;;;;;;;;;7392759;19;20352;-87
2023/08/26 06:02:34;;;;;;;0.93;0.93;;;;;;;;;;7393528;19;20351;-85
2023/08/26 06:05:02;;;;;;;0.40;0.40;;;;;;;;;;7393470;19;20353;-86
2023/08/26 06:07:29;;;;;;;0.80;0.80;;;;;;;;;;7391984;19;20895;-87
2023/08/26 06:09:56;;;;;;;0.50;0.50;;;;;;;;;;7393826;19;20352;-85
2023/08/26 06:12:22;;;;;;;0.73;0.73;;;;;;;;;;7392881;19;20879;-85
2023/08/26 06:14:49;;;;;;;0.57;0.57;;;;;;;;;;7394032;19;20356;-85
2023/08/26 06:17:16;;;;;;;0.57;0.57;;;;;;;;;;7392856;19;20445;-85
2023/08/26 06:19:43;;;;;;;0.50;0.50;;;;;;;;;;7393525;19;20428;-90
2023/08/26 06:22:09;;;;;;;0.60;0.60;;;;;;;;;;7392795;19;20892;-85
2023/08/26 06:24:36;;;;;;;1.80;1.00;;;;;;;;;;7393261;19;20328;-84
2023/08/26 06:27:03;;;;;;;0.50;0.50;;;;;;;;;;7391957;19;20383;-89
2023/08/26 06:29:30;;;;;;;0.50;0.50;;;;;;;;;;7390916;19;20337;-86
2023/08/26 06:31:57;;;;;;;0.90;0.90;;;;;;;;;;7393337;19;20374;-86
2023/08/26 06:34:24;;;;;;;1.95;0.47;;;;;;;;;;7393110;19;20357;-86
2023/08/26 06:36:51;;;;;;;1.48;1.00;;;;;;;;;;7389979;19;20349;-85
2023/08/26 06:39:18;;;;;;;0.50;0.50;;;;;;;;;;7393887;19;20900;-84
2023/08/26 06:41:45;;;;;;;0.50;0.50;;;;;;;;;;7395852;19;20949;-86
2023/08/26 06:44:11;;;;;;;0.70;0.70;;;;;;;;;;7391689;19;20359;-86
2023/08/26 06:46:40;;;;;;;0.80;0.77;;;;;;;;;;7391277;19;20348;-86
2023/08/26 06:49:07;;;;;;;0.90;0.90;;;;;;;;;;7390389;19;20348;-86
2023/08/26 06:51:34;;;;;;;0.73;0.73;;;;;;;;;;7392574;19;20349;-85
2023/08/26 06:54:00;;;;;;;0.50;0.50;;;;;;;;;;7394138;19;20361;-87
2023/08/26 06:56:27;;;;;;;0.75;0.75;;;;;;;;;;7388974;19;20416;-86
2023/08/26 06:58:54;;;;;;;0.88;0.88;;;;;;;;;;7395374;19;20423;-86
2023/08/26 07:01:21;;;;;;;0.70;0.70;;;;;;;;;;7396444;19;20369;-86
2023/08/26 07:03:48;;;;;;;0.70;0.70;;;;;;;;;;7394008;19;20344;-86
2023/08/26 07:06:15;;;;;;;1.15;0.93;;;;;;;;;;7395419;19;20349;-86
2023/08/26 07:08:42;;;;;;;0.80;0.80;;;;;;;;;;7394304;19;20922;-87
2023/08/26 07:11:09;;;;;;;0.73;0.73;;;;;;;;;;7397852;19;20367;-85
2023/08/26 07:13:36;;;;;;;0.95;0.88;;;;;;;;;;7396449;19;20423;-86
2023/08/26 07:16:03;;;;;;;0.70;0.70;;;;;;;;;;7396485;19;20881;-86
2023/08/26 07:18:29;;;;;;;1.08;0.98;;;;;;;;;;7392793;19;20891;-86
2023/08/26 07:20:56;;;;;;;0.63;0.63;;;;;;;;;;7395556;19;21207;-86
2023/08/26 10:34:35;;;;;;;0.87;0.87;;;;;;;;;;7398878;19;20340;-84
2023/08/26 10:37:04;;;;;;;1.00;0.70;;;;;;;;;;7387493;19;20649;-85
2023/08/26 10:39:34;;;;;;;0.93;0.93;;;;;;;;;;7402836;19;20368;-86
2023/08/26 10:42:16;;;;;;;0.60;0.60;;;;;;;;;;7394147;19;20924;-85
2023/08/26 10:44:50;;;;;;;0.80;0.80;;;;;;;;;;7395056;19;20922;-85
2023/08/26 10:47:38;;;;;;;0.55;0.55;;;;;;;;;;7394535;19;20435;-86
2023/08/26 10:50:22;;;;;;;0.60;0.60;;;;;;;;;;7398027;19;20344;-85
2023/08/26 10:53:00;;;;;;;0.45;0.45;;;;;;;;;;7407549;19;20340;-86
2023/08/26 10:55:32;;;;;;;0.63;0.47;;;;;;;;;;7402500;19;20356;-85
2023/08/26 10:58:15;;;;;;;0.77;0.77;;;;;;;;;;7398406;19;20373;-85
2023/08/26 11:00:45;;;;;;;0.80;0.75;;;;;;;;;;7399411;19;20344;-87
2023/08/26 11:03:13;;;;;;;0.70;0.70;;;;;;;;;;7393155;19;20348;-85
2023/08/26 11:05:42;;;;;;;2.90;0.90;;;;;;;;;;7404213;19;20340;-86
2023/08/26 11:08:09;;;;;;;1.15;0.75;;;;;;;;;;7396358;19;20346;-85
2023/08/26 11:10:40;;;;;;;0.70;0.70;;;;;;;;;;7397971;19;20356;-87
2023/08/26 11:13:08;;;;;;;0.80;0.80;;;;;;;;;;7398880;19;20365;-85
2023/08/26 11:15:41;;;;;;;0.60;0.60;;;;;;;;;;7398977;19;20367;-86
2023/08/26 11:18:09;;;;;;;0.50;0.50;;;;;;;;;;7399874;19;20377;-87
2023/08/26 11:20:37;;;;;;;0.70;0.70;;;;;;;;;;7394859;19;20712;-89
2023/08/26 11:23:05;;;;;;;0.65;0.57;;;;;;;;;;7403658;19;21069;-90
2023/08/26 11:25:36;;;;;;;0.70;0.70;;;;;;;;;;7407223;19;20403;-89
2023/08/26 11:28:04;;;;;;;0.40;0.40;;;;;;;;;;7396816;19;20365;-88
2023/08/26 11:30:36;;;;;;;0.50;0.50;;;;;;;;;;7403571;19;20357;-87
2023/08/26 11:33:09;;;;;;;0.60;0.60;;;;;;;;;;7399240;19;20351;-88
2023/08/26 11:35:39;;;;;;;0.63;0.52;;;;;;;;;;7406052;19;20382;-88
2023/08/26 11:38:09;;;;;;;0.63;0.63;;;;;;;;;;7405563;19;20356;-87
2023/08/26 11:40:35;;;;;;;0.47;0.47;;;;;;;;;;7405238;19;20875;-87
2023/08/26 11:43:57;;;;;;;1.60;1.15;;;;;;;;;;7405464;19;20356;-88
2023/08/26 11:47:00;;;;;;;0.70;0.70;;;;;;;;;;7403711;19;20416;-87
2023/08/26 11:49:27;;;;;;;0.40;0.40;;;;;;;;;;7402663;19;20368;-88
2023/08/26 11:51:54;;;;;;;0.30;0.30;;;;;;;;;;7398708;19;21114;-86
2023/08/26 11:54:25;;;;;;;0.52;0.52;;;;;;;;;;7398745;19;20349;-86
2023/08/26 11:56:57;;;;;;;1.60;0.60;;;;;;;;;;7398705;19;20357;-89
2023/08/26 12:00:09;;;;;;;0.70;0.70;;;;;;;;;;7398568;19;20375;-87
2023/08/26 12:02:38;;;;;;;0.75;0.75;;;;;;;;;;7401724;19;20696;-87
2023/08/26 12:05:05;;;;;;;0.45;0.45;;;;;;;;;;7401025;19;20673;-88
2023/08/26 12:07:32;;;;;;;0.50;0.40;;;;;;;;;;7400252;19;20337;-86
2023/08/26 12:10:09;;;;;;;0.50;0.50;;;;;;;;;;7396244;19;20894;-86
2023/08/26 12:12:36;;;;;;;0.43;0.43;;;;;;;;;;7400299;19;20756;-86
2023/08/26 12:15:08;;;;;;;0.50;0.50;;;;;;;;;;7398621;19;20344;-83
2023/08/26 12:17:43;;;;;;;0.70;0.70;;;;;;;;;;7392515;19;20369;-83
2023/08/26 12:20:30;;;;;;;0.70;0.70;;;;;;;;;;7396152;19;20408;-87
2023/08/26 12:23:02;;;;;;;0.88;0.88;;;;;;;;;;7397435;19;20370;-88
2023/08/26 12:25:33;;;;;;;0.55;0.55;;;;;;;;;;7394922;19;20898;-86
2023/08/26 12:28:35;;;;;;;0.50;0.50;;;;;;;;;;7387430;19;20344;-87
2023/08/26 12:31:01;;;;;;;5.50;1.30;;;;;;;;;;7386901;19;20348;-87
2023/08/26 12:33:28;;;;;;;0.60;0.60;;;;;;;;;;7389671;19;20333;-86
2023/08/26 12:35:55;;;;;;;0.90;0.50;;;;;;;;;;7391045;19;20337;-86
2023/08/26 12:38:24;;;;;;;1.45;1.15;;;;;;;;;;7391657;19;20339;-88
2023/08/26 12:40:51;;;;;;;0.73;0.73;;;;;;;;;;7389006;19;20357;-86
2023/08/26 12:43:18;;;;;;;12.95;1.08;;;;;;;;;;7400103;19;20356;-86
2023/08/26 12:45:46;;;;;;;0.37;0.37;;;;;;;;;;7398320;19;20352;-85
2023/08/26 12:48:14;;;;;;;0.40;0.40;;;;;;;;;;7396444;19;20340;-86
2023/08/26 12:50:53;;;;;;;0.50;0.50;;;;;;;;;;7396050;19;20333;-86
2023/08/26 12:53:20;;;;;;;2.70;2.60;;;;;;;;;;7386558;19;20147;-88
2023/08/26 12:55:47;;;;;;;2.70;2.60;;;;;;;;;;7388539;19;20169;-87
2023/08/26 12:58:21;;;;;;;3.03;2.92;;;;;;;;;;7392548;19;20153;-86
2023/08/26 13:00:48;;;;;;;2.47;2.38;;;;;;;;;;7389483;19;20161;-86
2023/08/26 13:03:14;;;;;;;2.35;2.25;;;;;;;;;;7388770;19;20160;-87
2023/08/26 13:05:41;;;;;;;0.50;0.50;;;;;;;;;;7413094;19;20316;-86
2023/08/26 13:08:08;;;;;;;0.70;0.70;;;;;;;;;;7411285;19;20352;-85
2023/08/26 13:10:35;;;;;;;0.70;0.70;;;;;;;;;;7404635;19;20321;-86
2023/08/26 13:13:02;;;;;;;0.75;0.75;;;;;;;;;;7392781;19;20432;-87
2023/08/26 13:15:30;;;;;;;0.70;0.57;;;;;;;;;;7389006;19;20437;-85
2023/08/26 13:17:57;;;;;;;0.40;0.40;;;;;;;;;;7390821;19;20981;-84
2023/08/26 13:20:24;;;;;;;0.60;0.60;;;;;;;;;;7388600;19;20812;-86
2023/08/26 13:22:51;;;;;;;1.13;0.93;;;;;;;;;;7392300;19;20377;-85
2023/08/26 13:25:17;;;;;;;0.70;0.70;;;;;;;;;;7393014;19;20360;-85
2023/08/26 13:27:44;;;;;;;0.70;0.70;;;;;;;;;;7390096;19;20356;-87
2023/08/26 13:30:12;;;;;;;0.65;0.65;;;;;;;;;;7388031;19;20928;-87
2023/08/26 13:32:39;;;;;;;0.75;0.70;;;;;;;;;;7390232;19;20337;-86
2023/08/26 13:35:07;;;;;;;0.40;0.40;;;;;;;;;;7387099;19;20360;-87
2023/08/26 13:37:33;;;;;;;0.60;0.60;;;;;;;;;;7387833;19;20353;-87
2023/08/26 13:40:00;;;;;;;0.77;0.65;;;;;;;;;;7392481;19;20327;-87
2023/08/26 13:42:27;;;;;;;0.60;0.60;;;;;;;;;;7385177;19;20359;-87
2023/08/26 13:44:53;;;;;;;0.68;0.68;;;;;;;;;;7390344;19;20683;-86
2023/08/26 13:47:20;;;;;;;0.80;0.80;;;;;;;;;;7383519;19;20341;-85
2023/08/26 13:49:49;;;;;;;0.35;0.35;;;;;;;;;;7391320;19;20331;-85
2023/08/26 13:52:16;;;;;;;0.95;0.90;;;;;;;;;;7389083;19;20696;-85
2023/08/26 13:54:44;;;;;;;0.70;0.70;;;;;;;;;;7390175;19;20380;-85
2023/08/26 13:57:10;;;;;;;0.45;0.45;;;;;;;;;;7388200;19;20498;-85
2023/08/26 13:59:37;;;;;;;1.00;0.90;;;;;;;;;;7396178;19;20415;-90
2023/08/26 14:02:08;;;;;;;0.37;0.37;;;;;;;;;;7392470;19;20347;-88
2023/08/26 14:04:35;;;;;;;0.50;0.50;;;;;;;;;;7395443;19;20353;-89
2023/08/26 14:07:01;;;;;;;0.63;0.63;;;;;;;;;;7391184;19;20317;-86
2023/08/26 14:09:28;;;;;;;0.65;0.60;;;;;;;;;;7391588;19;20424;-87
2023/08/26 14:11:58;;;;;;;0.57;0.50;;;;;;;;;;7388051;19;20329;-89
2023/08/26 14:14:24;;;;;;;0.40;0.40;;;;;;;;;;7391216;19;20352;-88
2023/08/26 14:16:51;;;;;;;0.50;0.50;;;;;;;;;;7386321;19;20375;-86
2023/08/26 14:19:18;;;;;;;0.40;0.40;;;;;;;;;;7388099;19;20352;-87
2023/08/26 14:21:44;;;;;;;1.20;0.80;;;;;;;;;;7381972;19;20344;-86
2023/08/26 14:24:11;;;;;;;0.60;0.60;;;;;;;;;;7388635;19;20692;-88
2023/08/26 14:26:38;;;;;;;0.50;0.50;;;;;;;;;;7389589;19;20356;-86
2023/08/26 14:29:04;;;;;;;0.73;0.73;;;;;;;;;;7385456;19;20396;-89
2023/08/26 14:31:31;;;;;;;0.70;0.70;;;;;;;;;;7392894;19;20353;-88
2023/08/26 14:33:57;;;;;;;0.60;0.60;;;;;;;;;;7390411;19;20787;-87
2023/08/26 14:36:24;;;;;;;0.50;0.50;;;;;;;;;;7392150;19;20347;-87
2023/08/26 14:38:54;;;;;;;0.50;0.50;;;;;;;;;;7388791;19;20333;-87
2023/08/26 14:41:21;;;;;;;0.40;0.40;;;;;;;;;;7388963;19;20682;-88
2023/08/26 14:43:49;;;;;;;0.75;0.75;;;;;;;;;;7388784;19;20904;-88
2023/08/26 14:46:41;;;;;;;0.50;0.50;;;;;;;;;;7392693;19;20838;-89
2023/08/26 14:49:24;;;;;;;0.50;0.50;;;;;;;;;;7405654;19;20430;-88
2023/08/26 14:51:51;;;;;;;0.67;0.67;;;;;;;;;;7395188;19;20341;-87
2023/08/26 14:54:20;;;;;;;0.60;0.60;;;;;;;;;;7386778;19;20340;-86
2023/08/26 14:56:46;;;;;;;0.80;0.80;;;;;;;;;;7385655;19;20440;-87
2023/08/26 14:59:13;;;;;;;0.50;0.50;;;;;;;;;;7384123;19;20332;-87
2023/08/26 15:01:40;;;;;;;0.40;0.40;;;;;;;;;;7385785;19;21080;-87
2023/08/26 15:04:07;;;;;;;1.70;0.80;;;;;;;;;;7387627;19;20364;-88
2023/08/26 15:06:34;;;;;;;0.45;0.45;;;;;;;;;;7386246;19;20356;-87
2023/08/26 15:09:12;;;;;;;0.57;0.57;;;;;;;;;;7384485;19;20345;-90
2023/08/26 15:11:44;;;;;;;0.80;0.80;;;;;;;;;;7384516;19;20343;-89
2023/08/26 15:14:31;;;;;;;0.60;0.60;;;;;;;;;;7384511;19;20348;-89
2023/08/26 15:17:12;;;;;;;0.82;0.82;;;;;;;;;;7383241;19;20349;-89
2023/08/26 15:19:59;;;;;;;0.63;0.63;;;;;;;;;;7392751;19;20348;-89
2023/08/26 15:22:59;;;;;;;0.68;0.68;;;;;;;;;;7392768;19;20838;-86
2023/08/26 15:25:30;;;;;;;0.60;0.60;;;;;;;;;;7397752;19;20340;-89
2023/08/26 15:27:58;;;;;;;3.80;0.60;;;;;;;;;;7398311;19;20348;-89
2023/08/26 15:30:25;;;;;;;0.82;0.75;;;;;;;;;;7397203;19;20341;-89
2023/08/26 15:32:52;;;;;;;0.50;0.50;;;;;;;;;;7399792;19;20874;-90
2023/08/26 15:35:19;;;;;;;1.00;0.55;;;;;;;;;;7401884;19;20344;-88
2023/08/26 15:37:46;;;;;;;0.40;0.40;;;;;;;;;;7403630;19;20379;-89
2023/08/26 15:40:13;;;;;;;0.70;0.70;;;;;;;;;;7395940;19;20669;-88
2023/08/26 15:42:40;;;;;;;0.57;0.53;;;;;;;;;;7407423;19;20353;-86
2023/08/26 15:45:07;;;;;;;0.55;0.55;;;;;;;;;;7426373;19;20340;-87
2023/08/26 15:47:34;;;;;;;0.80;0.80;;;;;;;;;;7425875;19;20385;-87
2023/08/26 15:50:01;;;;;;;1.77;0.90;;;;;;;;;;7404887;19;20357;-87
2023/08/26 15:52:31;;;;;;;0.60;0.60;;;;;;;;;;7393089;19;20332;-87
2023/08/26 15:54:57;;;;;;;0.63;0.63;;;;;;;;;;7393260;19;20388;-88
2023/08/26 15:57:24;;;;;;;0.80;0.80;;;;;;;;;;7389045;19;20347;-86
2023/08/26 15:59:51;;;;;;;0.68;0.68;;;;;;;;;;7392485;19;20348;-87
2023/08/26 16:02:17;;;;;;;0.75;0.75;;;;;;;;;;7393492;19;20744;-86
2023/08/26 16:04:44;;;;;;;0.77;0.77;;;;;;;;;;7395113;19;20320;-87
2023/08/26 16:07:11;;;;;;;0.85;0.85;;;;;;;;;;7393008;19;20425;-87
2023/08/26 16:09:40;;;;;;;0.50;0.50;;;;;;;;;;7398666;19;20343;-87
2023/08/26 16:12:06;;;;;;;0.63;0.63;;;;;;;;;;7393942;19;20435;-87
2023/08/26 16:14:33;;;;;;;0.70;0.70;;;;;;;;;;7394248;19;20424;-87
2023/08/26 16:17:00;;;;;;;0.55;0.52;;;;;;;;;;7391728;19;20344;-86
2023/08/26 16:19:26;;;;;;;0.90;0.70;;;;;;;;;;7395869;19;20362;-87
2023/08/26 16:21:57;;;;;;;1.00;0.90;;;;;;;;;;7394461;19;20328;-87
2023/08/26 16:24:24;;;;;;;1.02;0.88;;;;;;;;;;7395794;19;20365;-87
2023/08/26 16:26:50;;;;;;;0.43;0.43;;;;;;;;;;7394669;19;20340;-87
2023/08/26 16:29:17;;;;;;;0.80;0.80;;;;;;;;;;7389491;19;20842;-86
2023/08/26 16:31:43;;;;;;;0.80;0.80;;;;;;;;;;7390765;19;20808;-86
2023/08/26 16:34:10;;;;;;;0.55;0.55;;;;;;;;;;7391508;19;20408;-86
2023/08/26 16:36:37;;;;;;;0.70;0.70;;;;;;;;;;7391910;19;20348;-88
2023/08/26 16:39:03;;;;;;;0.95;0.90;;;;;;;;;;7392677;19;20706;-88
2023/08/26 16:41:30;;;;;;;4.78;0.85;;;;;;;;;;7391558;19;20741;-88
2023/08/26 16:43:57;;;;;;;0.63;0.63;;;;;;;;;;7395721;19;20344;-87
2023/08/26 16:46:23;;;;;;;0.50;0.50;;;;;;;;;;7393732;19;20407;-87
2023/08/26 16:48:50;;;;;;;0.70;0.70;;;;;;;;;;7387301;19;20357;-86
2023/08/26 16:51:17;;;;;;;0.80;0.80;;;;;;;;;;7396951;19;20404;-85
2023/08/26 16:53:43;;;;;;;0.65;0.65;;;;;;;;;;7387162;19;20368;-86
2023/08/26 16:56:10;;;;;;;0.40;0.40;;;;;;;;;;7389598;19;20360;-86
2023/08/26 16:58:37;;;;;;;0.67;0.67;;;;;;;;;;7388404;19;20364;-86
2023/08/26 17:01:03;;;;;;;0.82;0.82;;;;;;;;;;7390579;19;20348;-86
2023/08/26 17:03:30;;;;;;;0.43;0.43;;;;;;;;;;7393767;19;20396;-86
2023/08/26 17:05:58;;;;;;;0.50;0.50;;;;;;;;;;7392810;19;20341;-85
2023/08/26 17:08:25;;;;;;;0.60;0.60;;;;;;;;;;7395814;19;20353;-86
2023/08/26 17:10:54;;;;;;;0.65;0.65;;;;;;;;;;7392970;19;20420;-85
2023/08/26 17:13:25;;;;;;;0.70;0.68;;;;;;;;;;7385565;19;20353;-86
2023/08/26 17:15:51;;;;;;;1.40;1.20;;;;;;;;;;7390189;19;20409;-85
2023/08/26 17:18:18;;;;;;;0.40;0.40;;;;;;;;;;7390519;19;20365;-86
2023/08/26 17:20:46;;;;;;;0.90;0.63;;;;;;;;;;7394156;19;20373;-85
2023/08/26 17:23:15;;;;;;;0.50;0.50;;;;;;;;;;7393645;19;20432;-86
2023/08/26 17:25:43;;;;;;;1.02;0.70;;;;;;;;;;7393292;19;20789;-85
2023/08/26 17:28:10;;;;;;;0.60;0.60;;;;;;;;;;7391878;19;20332;-86
2023/08/26 17:30:36;;;;;;;0.40;0.40;;;;;;;;;;7392331;19;20352;-86
2023/08/26 17:33:04;;;;;;;0.75;0.65;;;;;;;;;;7392040;19;20365;-86
2023/08/26 17:35:37;;;;;;;0.65;0.65;;;;;;;;;;7392108;19;20386;-86
2023/08/26 17:38:04;;;;;;;0.50;0.50;;;;;;;;;;7393906;19;20428;-85
2023/08/26 17:40:31;;;;;;;0.60;0.60;;;;;;;;;;7389759;19;20370;-85
2023/08/26 17:42:58;;;;;;;0.40;0.40;;;;;;;;;;7391642;19;20356;-85
2023/08/26 17:45:25;;;;;;;0.60;0.60;;;;;;;;;;7394685;19;20363;-86
2023/08/26 17:47:51;;;;;;;0.50;0.50;;;;;;;;;;7393939;19;20337;-85
2023/08/26 17:50:18;;;;;;;0.93;0.70;;;;;;;;;;7394573;19;20356;-85
2023/08/26 17:52:45;;;;;;;0.40;0.40;;;;;;;;;;7392287;19;20424;-85
2023/08/26 17:55:12;;;;;;;0.70;0.70;;;;;;;;;;7392772;19;20356;-86
2023/08/26 17:57:39;;;;;;;0.52;0.52;;;;;;;;;;7387349;19;20345;-89
2023/08/26 18:00:08;;;;;;;0.75;0.55;;;;;;;;;;7387620;19;20352;-84
2023/08/26 18:02:36;;;;;;;0.50;0.50;;;;;;;;;;7394541;19;20363;-84
2023/08/26 18:05:04;;;;;;;0.73;0.70;;;;;;;;;;7389732;19;20728;-84
2023/08/26 18:07:31;;;;;;;0.68;0.50;;;;;;;;;;7390046;19;20882;-83
2023/08/26 18:09:58;;;;;;;0.52;0.52;;;;;;;;;;7393876;19;20374;-87
2023/08/26 18:12:25;;;;;;;0.43;0.43;;;;;;;;;;7392302;19;20340;-84
2023/08/26 18:14:51;;;;;;;0.70;0.70;;;;;;;;;;7394443;19;20949;-84
2023/08/26 18:17:18;;;;;;;0.60;0.60;;;;;;;;;;7392150;19;20677;-85
2023/08/26 18:19:45;;;;;;;0.38;0.38;;;;;;;;;;7389502;19;20356;-83
2023/08/26 18:22:11;;;;;;;0.40;0.40;;;;;;;;;;7391642;19;20327;-83
2023/08/26 18:24:38;;;;;;;0.40;0.40;;;;;;;;;;7390366;19;20356;-86
2023/08/26 18:27:05;;;;;;;0.60;0.60;;;;;;;;;;7392853;19;20969;-86
2023/08/26 18:29:38;;;;;;;0.80;0.63;;;;;;;;;;7392970;19;20356;-85
2023/08/26 18:32:07;;;;;;;0.40;0.40;;;;;;;;;;7389433;19;20427;-86
2023/08/26 18:34:34;;;;;;;0.50;0.50;;;;;;;;;;7391110;19;20323;-85
2023/08/26 18:37:01;;;;;;;0.60;0.60;;;;;;;;;;7390227;19;20355;-85
2023/08/26 18:39:28;;;;;;;0.90;0.90;;;;;;;;;;7388436;19;20892;-85
2023/08/26 18:41:54;;;;;;;0.50;0.50;;;;;;;;;;7391830;19;20363;-87
2023/08/26 18:44:21;;;;;;;0.70;0.60;;;;;;;;;;7387400;19;20423;-87
2023/08/26 18:46:49;;;;;;;0.57;0.57;;;;;;;;;;7386909;19;20357;-87
2023/08/26 18:49:15;;;;;;;0.63;0.63;;;;;;;;;;7389716;19;20473;-87
2023/08/26 18:51:43;;;;;;;0.73;0.73;;;;;;;;;;7389094;19;20355;-87
2023/08/26 18:54:09;;;;;;;0.50;0.50;;;;;;;;;;7391485;19;20400;-86
2023/08/26 18:56:36;;;;;;;0.80;0.80;;;;;;;;;;7396415;19;20348;-87
2023/08/26 18:59:03;;;;;;;0.90;0.50;;;;;;;;;;7394262;19;20335;-86
2023/08/26 19:01:30;;;;;;;0.50;0.50;;;;;;;;;;7396140;19;20380;-85
2023/08/26 19:03:59;;;;;;;1.55;1.05;;;;;;;;;;7397871;19;20869;-86
2023/08/26 19:06:25;;;;;;;2.72;1.27;;;;;;;;;;7396059;19;20337;-87
2023/08/26 19:08:52;;;;;;;0.60;0.60;;;;;;;;;;7396088;19;20392;-88
2023/08/26 19:11:19;;;;;;;1.30;0.70;;;;;;;;;;7394491;19;20332;-86
2023/08/26 19:13:45;;;;;;;0.60;0.60;;;;;;;;;;7398451;19;20355;-87
2023/08/26 19:16:12;;;;;;;0.47;0.47;;;;;;;;;;7398707;19;20353;-86
2023/08/26 19:18:39;;;;;;;0.70;0.70;;;;;;;;;;7395078;19;20356;-87
2023/08/26 19:21:05;;;;;;;0.57;0.52;;;;;;;;;;7395388;19;20428;-86
2023/08/26 19:23:32;;;;;;;0.55;0.55;;;;;;;;;;7396666;19;20886;-87
2023/08/26 19:25:59;;;;;;;0.50;0.50;;;;;;;;;;7397497;19;20343;-86
2023/08/26 19:28:25;;;;;;;0.40;0.40;;;;;;;;;;7396108;19;20359;-86